createdAt,value
2022-08-27T00:02:21.687Z,23.22
2022-08-27T00:04:50.297Z,23.25
2022-08-27T00:07:19.384Z,23.18
2022-08-27T00:09:47.809Z,23.08
2022-08-27T00:12:16.209Z,23.04
2022-08-27T00:14:46.639Z,23.00
2022-08-27T00:17:15.827Z,22.92
2022-08-27T00:19:44.547Z,22.73
2022-08-27T00:22:13.654Z,22.80
2022-08-27T00:24:48.837Z,22.86
2022-08-27T00:27:18.631Z,22.81
2022-08-27T00:29:49.263Z,22.75
2022-08-27T00:32:18.464Z,22.68
2022-08-27T00:34:46.861Z,22.71
2022-08-27T00:37:15.764Z,22.58
2022-08-27T00:39:44.175Z,22.54
2022-08-27T00:42:13.192Z,22.63
2022-08-27T00:44:41.673Z,22.65
2022-08-27T00:47:17.430Z,22.56
2022-08-27T00:49:52.285Z,22.48
2022-08-27T00:52:26.950Z,22.58
2022-08-27T00:55:01.609Z,22.64
2022-08-27T00:57:30.968Z,22.59
2022-08-27T00:59:59.655Z,22.47
2022-08-27T01:02:30.865Z,22.43
2022-08-27T01:05:03.844Z,22.37
2022-08-27T01:07:36.918Z,22.36
2022-08-27T01:10:11.657Z,22.42
2022-08-27T01:12:40.632Z,22.48
2022-08-27T01:15:19.817Z,22.46
2022-08-27T01:17:51.348Z,22.54
2022-08-27T01:20:25.023Z,22.55
2022-08-27T01:23:03.323Z,22.57
2022-08-27T01:25:34.070Z,22.52
2022-08-27T01:28:04.900Z,22.45
2022-08-27T01:30:33.673Z,22.32
2022-08-27T01:33:02.058Z,22.39
2022-08-27T01:35:30.723Z,22.36
2022-08-27T01:38:02.044Z,22.35
2022-08-27T01:40:32.402Z,22.42
2022-08-27T01:43:02.575Z,22.41
2022-08-27T01:45:34.071Z,22.43
2022-08-27T01:48:03.813Z,22.39
2022-08-27T01:50:37.110Z,22.38
2022-08-27T01:53:09.761Z,22.44
2022-08-27T01:55:41.674Z,22.49
2022-08-27T01:58:17.071Z,22.44
2022-08-27T02:00:56.140Z,22.39
2022-08-27T02:03:26.971Z,22.38
2022-08-27T02:05:55.694Z,22.37
2022-08-27T02:08:24.573Z,22.35
2022-08-27T02:10:54.379Z,22.21
2022-08-27T02:13:22.790Z,22.14
2022-08-27T02:15:51.802Z,22.15
2022-08-27T02:18:20.580Z,22.19
2022-08-27T02:20:49.647Z,22.28
2022-08-27T02:23:18.584Z,22.22
2022-08-27T02:25:47.785Z,22.22
2022-08-27T02:28:17.653Z,22.16
2022-08-27T02:30:46.275Z,22.14
2022-08-27T02:33:14.724Z,22.09
2022-08-27T02:35:44.299Z,22.08
2022-08-27T02:38:14.087Z,22.14
2022-08-27T02:40:42.718Z,22.16
2022-08-27T02:43:15.739Z,22.06
2022-08-27T02:45:46.112Z,22.03
2022-08-27T02:48:14.751Z,21.98
2022-08-27T02:50:43.844Z,21.98
2022-08-27T02:53:12.606Z,22.01
2022-08-27T02:55:41.067Z,21.94
2022-08-27T02:58:09.965Z,21.97
2022-08-27T03:00:38.499Z,21.81
2022-08-27T03:03:10.648Z,21.77
2022-08-27T03:05:39.335Z,21.80
2022-08-27T03:08:08.754Z,21.82
2022-08-27T03:10:37.535Z,21.78
2022-08-27T03:13:05.897Z,21.85
2022-08-27T03:15:35.385Z,21.79
2022-08-27T03:18:22.115Z,21.80
2022-08-27T03:20:55.711Z,21.70
2022-08-27T03:23:26.939Z,21.71
2022-08-27T03:25:59.910Z,21.81
2022-08-27T03:28:31.599Z,21.74
2022-08-27T03:31:03.992Z,21.71
2022-08-27T03:33:35.331Z,21.78
2022-08-27T03:36:06.488Z,21.79
2022-08-27T03:38:35.742Z,21.79
2022-08-27T03:41:04.597Z,21.66
2022-08-27T03:43:33.411Z,21.70
2022-08-27T03:46:02.563Z,21.71
2022-08-27T03:48:31.890Z,21.71
2022-08-27T03:51:00.728Z,21.66
2022-08-27T03:53:30.498Z,21.66
2022-08-27T03:55:58.910Z,21.56
2022-08-27T03:58:28.060Z,21.63
2022-08-27T04:00:56.434Z,21.61
2022-08-27T04:03:25.105Z,21.66
2022-08-27T04:05:54.979Z,21.65
2022-08-27T04:08:24.231Z,21.56
2022-08-27T04:10:54.901Z,21.60
2022-08-27T04:13:24.957Z,21.54
2022-08-27T04:15:56.405Z,21.58
2022-08-27T04:18:25.098Z,21.70
2022-08-27T04:20:53.679Z,21.64
2022-08-27T04:23:22.405Z,21.63
2022-08-27T04:25:51.033Z,21.57
2022-08-27T04:28:21.318Z,21.50
2022-08-27T04:30:49.687Z,21.50
2022-08-27T04:33:18.254Z,21.57
2022-08-27T04:35:46.739Z,21.46
2022-08-27T04:38:15.329Z,21.49
2022-08-27T04:41:01.222Z,21.40
2022-08-27T04:43:30.973Z,21.49
2022-08-27T04:45:59.511Z,21.27
2022-08-27T04:48:27.971Z,21.35
2022-08-27T04:50:56.410Z,21.37
2022-08-27T04:53:25.142Z,21.42
2022-08-27T04:55:56.346Z,21.40
2022-08-27T04:58:27.324Z,21.38
2022-08-27T05:01:01.593Z,21.45
2022-08-27T05:03:30.672Z,21.68
2022-08-27T05:06:04.812Z,21.54
2022-08-27T05:08:34.096Z,21.46
2022-08-27T05:11:02.757Z,21.50
2022-08-27T05:13:31.594Z,21.40
2022-08-27T05:16:04.402Z,21.45
2022-08-27T05:18:37.646Z,21.44
2022-08-27T05:21:19.709Z,21.37
2022-08-27T05:23:48.529Z,21.41
2022-08-27T05:26:17.321Z,21.45
2022-08-27T05:28:46.245Z,21.43
2022-08-27T05:31:17.746Z,21.46
2022-08-27T05:33:47.071Z,21.46
2022-08-27T05:36:21.769Z,21.50
2022-08-27T05:38:51.472Z,21.46
2022-08-27T05:41:25.081Z,21.43
2022-08-27T05:44:01.696Z,21.51
2022-08-27T05:46:31.691Z,21.55
2022-08-27T05:49:01.808Z,21.51
2022-08-27T05:51:33.495Z,21.57
2022-08-27T05:54:08.604Z,21.42
2022-08-27T05:56:39.492Z,21.41
2022-08-27T05:59:31.371Z,21.39
2022-08-27T06:02:06.157Z,21.47
2022-08-27T06:04:34.830Z,21.36
2022-08-27T06:07:03.553Z,21.38
2022-08-27T06:09:32.174Z,21.43
2022-08-27T06:12:02.629Z,21.40
2022-08-27T06:14:31.873Z,21.41
2022-08-27T06:17:02.163Z,21.42
2022-08-27T06:19:32.198Z,21.52
2022-08-27T06:22:09.532Z,21.41
2022-08-27T06:24:41.169Z,21.46
2022-08-27T06:27:14.588Z,21.44
2022-08-27T06:29:43.611Z,21.39
2022-08-27T06:32:14.268Z,21.49
2022-08-27T06:34:44.109Z,21.44
2022-08-27T06:37:12.781Z,21.62
2022-08-27T06:39:41.797Z,21.58
2022-08-27T06:42:13.798Z,21.59
2022-08-27T06:44:42.921Z,21.52
2022-08-27T06:47:11.714Z,21.65
2022-08-27T06:49:41.816Z,21.58
2022-08-27T06:52:16.537Z,21.90
2022-08-27T06:54:45.823Z,21.55
2022-08-27T06:57:14.237Z,21.81
2022-08-27T06:59:42.691Z,21.80
2022-08-27T07:04:39.727Z,21.69
2022-08-27T07:07:08.169Z,21.75
2022-08-27T07:09:37.994Z,21.83
2022-08-27T07:12:07.283Z,21.94
2022-08-27T07:14:38.294Z,21.94
2022-08-27T07:17:11.070Z,22.01
2022-08-27T07:19:44.748Z,21.91
2022-08-27T07:22:13.974Z,22.12
2022-08-27T07:24:43.964Z,22.22
2022-08-27T07:27:12.847Z,22.30
2022-08-27T07:29:41.532Z,22.21
2022-08-27T07:32:10.093Z,22.16
2022-08-27T07:34:38.563Z,22.27
2022-08-27T07:37:07.045Z,22.31
2022-08-27T07:39:35.418Z,22.44
2022-08-27T07:42:23.010Z,22.17
2022-08-27T07:44:51.496Z,22.12
2022-08-27T07:47:19.984Z,22.23
2022-08-27T07:49:48.605Z,22.30
2022-08-27T07:52:17.681Z,22.47
2022-08-27T07:54:47.440Z,22.59
2022-08-27T07:57:17.489Z,23.00
2022-08-27T07:59:45.919Z,23.41
2022-08-27T08:02:15.440Z,23.62
2022-08-27T08:04:43.907Z,24.53
2022-08-27T08:07:12.467Z,25.39
2022-08-27T08:09:41.012Z,25.33
2022-08-27T08:12:09.495Z,25.80
2022-08-27T08:14:39.338Z,25.00
2022-08-27T08:17:10.439Z,24.92
2022-08-27T08:19:40.376Z,24.74
2022-08-27T08:22:09.257Z,25.15
2022-08-27T08:24:37.726Z,25.29
2022-08-27T08:27:07.866Z,25.15
2022-08-27T08:29:38.952Z,24.97
2022-08-27T08:32:08.837Z,24.85
2022-08-27T08:34:37.829Z,25.28
2022-08-27T08:37:07.876Z,25.27
2022-08-27T08:39:38.781Z,24.81
2022-08-27T08:42:11.966Z,24.46
2022-08-27T08:44:48.678Z,24.53
2022-08-27T08:47:21.286Z,24.56
2022-08-27T08:49:57.130Z,24.29
2022-08-27T08:52:42.714Z,24.34
2022-08-27T08:55:24.088Z,24.42
2022-08-27T08:58:07.727Z,24.67
2022-08-27T09:00:40.337Z,24.81
2022-08-27T09:03:08.882Z,24.74
2022-08-27T09:05:42.184Z,24.83
2022-08-27T09:08:34.184Z,24.88
2022-08-27T09:11:13.703Z,24.52
2022-08-27T09:13:48.964Z,24.61
2022-08-27T09:16:19.232Z,24.74
2022-08-27T09:18:52.343Z,24.81
2022-08-27T09:21:33.337Z,24.85
2022-08-27T09:24:09.805Z,25.03
2022-08-27T09:26:41.984Z,24.96
2022-08-27T09:29:17.311Z,24.84
2022-08-27T09:31:54.016Z,24.79
2022-08-27T09:34:23.619Z,24.93
2022-08-27T09:37:00.669Z,24.82
2022-08-27T09:39:35.721Z,24.86
2022-08-27T09:42:06.575Z,24.63
2022-08-27T09:44:50.253Z,24.18
2022-08-27T09:47:23.353Z,24.03
2022-08-27T09:50:06.931Z,23.90
2022-08-27T09:52:40.655Z,23.89
2022-08-27T09:55:10.102Z,23.94
2022-08-27T09:57:42.811Z,24.23
2022-08-27T10:00:17.906Z,24.39
2022-08-27T10:02:55.372Z,24.53
2022-08-27T10:05:32.217Z,24.60
2022-08-27T10:08:04.524Z,24.48
2022-08-27T10:10:44.766Z,24.41
2022-08-27T10:13:19.928Z,24.35
2022-08-27T10:16:03.193Z,24.53
2022-08-27T10:18:42.183Z,24.17
2022-08-27T10:21:22.719Z,24.53
2022-08-27T10:24:09.936Z,24.53
2022-08-27T10:26:49.314Z,24.60
2022-08-27T10:29:29.260Z,24.63
2022-08-27T10:32:13.233Z,25.00
2022-08-27T10:34:58.087Z,25.41
2022-08-27T10:37:40.307Z,25.56
2022-08-27T10:40:18.431Z,25.53
2022-08-27T10:42:56.416Z,25.25
2022-08-27T10:45:44.711Z,25.28
2022-08-27T10:48:25.239Z,25.22
2022-08-27T10:51:01.927Z,25.42
2022-08-27T10:53:38.692Z,25.39
2022-08-27T10:56:16.506Z,25.42
2022-08-27T10:59:06.811Z,25.49
2022-08-27T11:01:48.610Z,25.53
2022-08-27T11:04:23.146Z,25.21
2022-08-27T11:06:58.845Z,25.15
2022-08-27T11:09:38.451Z,25.09
2022-08-27T11:12:14.274Z,25.17
2022-08-27T11:14:52.432Z,25.19
2022-08-27T11:17:32.622Z,25.54
2022-08-27T11:20:08.299Z,25.58
2022-08-27T11:22:43.773Z,25.15
2022-08-27T11:25:31.566Z,25.24
2022-08-27T11:28:01.627Z,25.41
2022-08-27T11:30:38.977Z,25.52
2022-08-27T11:33:18.465Z,25.46
2022-08-27T11:36:11.163Z,25.55
2022-08-27T11:38:55.933Z,25.49
2022-08-27T11:41:45.481Z,25.72
2022-08-27T11:44:16.483Z,25.74
2022-08-27T11:46:49.022Z,25.39
2022-08-27T11:49:28.319Z,25.18
2022-08-27T11:52:04.405Z,25.01
2022-08-27T11:54:47.152Z,25.18
2022-08-27T11:57:18.319Z,25.10
2022-08-27T11:59:46.865Z,25.06
2022-08-27T12:02:25.303Z,25.15
2022-08-27T12:04:57.723Z,25.33
2022-08-27T12:07:36.118Z,25.39
2022-08-27T12:10:28.641Z,25.58
2022-08-27T12:13:08.652Z,25.72
2022-08-27T12:15:52.391Z,25.70
2022-08-27T12:18:49.993Z,25.51
2022-08-27T12:21:32.013Z,25.44
2022-08-27T12:24:41.056Z,25.53
2022-08-27T12:27:35.020Z,25.49
2022-08-27T12:30:29.407Z,25.58
2022-08-27T12:33:01.337Z,25.60
2022-08-27T12:35:38.260Z,25.58
2022-08-27T12:38:17.211Z,25.84
2022-08-27T12:40:50.615Z,25.79
2022-08-27T12:43:27.780Z,25.89
2022-08-27T12:46:02.235Z,25.92
2022-08-27T12:48:34.115Z,25.78
2022-08-27T12:51:08.432Z,25.58
2022-08-27T12:53:45.054Z,25.54
2022-08-27T12:56:55.245Z,25.61
2022-08-27T12:59:55.076Z,25.71
2022-08-27T13:02:49.695Z,25.64
2022-08-27T13:05:21.274Z,25.65
2022-08-27T13:07:52.437Z,25.66
2022-08-27T13:10:26.322Z,25.65
2022-08-27T13:13:06.360Z,25.53
2022-08-27T13:15:36.891Z,25.63
2022-08-27T13:18:07.774Z,25.86
2022-08-27T13:20:40.464Z,25.58
2022-08-27T13:23:20.181Z,25.62
2022-08-27T13:25:59.325Z,25.74
2022-08-27T13:28:29.942Z,25.88
2022-08-27T13:31:00.797Z,26.18
2022-08-27T13:33:31.824Z,26.40
2022-08-27T13:36:02.625Z,26.14
2022-08-27T13:38:36.106Z,26.38
2022-08-27T13:41:08.967Z,26.01
2022-08-27T13:43:40.951Z,26.09
2022-08-27T13:46:15.288Z,26.02
2022-08-27T13:48:45.371Z,26.16
2022-08-27T13:51:16.057Z,26.02
2022-08-27T13:54:05.413Z,25.83
2022-08-27T13:56:37.711Z,25.96
2022-08-27T13:59:15.979Z,25.83
2022-08-27T14:01:58.523Z,25.93
2022-08-27T14:04:35.491Z,26.00
2022-08-27T14:07:13.593Z,25.93
2022-08-27T14:09:54.239Z,25.57
2022-08-27T14:12:32.848Z,25.60
2022-08-27T14:15:19.931Z,25.61
2022-08-27T14:17:50.260Z,25.40
2022-08-27T14:20:20.588Z,25.28
2022-08-27T14:22:49.597Z,25.34
2022-08-27T14:25:21.488Z,25.43
2022-08-27T14:27:54.532Z,25.40
2022-08-27T14:30:29.520Z,25.39
2022-08-27T14:33:01.328Z,25.30
2022-08-27T14:35:31.342Z,25.27
2022-08-27T14:38:03.009Z,25.34
2022-08-27T14:40:31.657Z,25.46
2022-08-27T14:43:01.497Z,25.29
2022-08-27T14:45:30.022Z,25.37
2022-08-27T14:48:18.223Z,25.41
2022-08-27T14:50:47.290Z,25.38
2022-08-27T14:53:15.794Z,25.31
2022-08-27T14:55:46.851Z,25.28
2022-08-27T14:58:20.436Z,25.23
2022-08-27T15:00:49.616Z,25.46
2022-08-27T15:03:20.136Z,25.35
2022-08-27T15:05:48.661Z,25.36
2022-08-27T15:08:17.651Z,25.33
2022-08-27T15:10:46.169Z,25.31
2022-08-27T15:13:14.702Z,25.36
2022-08-27T15:15:43.260Z,25.31
2022-08-27T15:18:11.944Z,25.30
2022-08-27T15:20:43.764Z,25.33
2022-08-27T15:23:14.941Z,25.36
2022-08-27T15:25:46.049Z,25.12
2022-08-27T15:28:14.876Z,25.09
2022-08-27T15:30:43.537Z,25.16
2022-08-27T15:33:11.957Z,25.13
2022-08-27T15:35:40.400Z,25.15
2022-08-27T15:38:12.188Z,25.26
2022-08-27T15:40:40.819Z,25.22
2022-08-27T15:43:11.914Z,25.10
2022-08-27T15:45:40.370Z,25.14
2022-08-27T15:48:10.692Z,25.15
2022-08-27T15:50:39.439Z,25.13
2022-08-27T15:53:11.030Z,25.02
2022-08-27T15:55:44.347Z,24.98
2022-08-27T15:58:13.150Z,24.84
2022-08-27T16:00:43.286Z,24.99
2022-08-27T16:03:14.135Z,25.00
2022-08-27T16:05:46.681Z,25.03
2022-08-27T16:08:16.763Z,24.92
2022-08-27T16:10:45.184Z,24.97
2022-08-27T16:13:13.667Z,24.82
2022-08-27T16:15:42.704Z,24.79
2022-08-27T16:18:11.751Z,24.60
2022-08-27T16:20:41.379Z,24.69
2022-08-27T16:23:09.965Z,24.71
2022-08-27T16:25:40.384Z,24.63
2022-08-27T16:28:08.875Z,24.70
2022-08-27T16:30:37.287Z,24.78
2022-08-27T16:33:05.867Z,24.83
2022-08-27T16:35:34.244Z,24.77
2022-08-27T16:38:02.689Z,24.63
2022-08-27T16:40:31.630Z,24.60
2022-08-27T16:43:01.790Z,24.51
2022-08-27T16:45:30.404Z,24.48
2022-08-27T16:48:16.444Z,24.50
2022-08-27T16:50:45.008Z,24.43
2022-08-27T16:53:16.913Z,24.39
2022-08-27T16:55:49.510Z,24.38
2022-08-27T16:58:23.006Z,24.45
2022-08-27T17:00:54.963Z,24.44
2022-08-27T17:03:25.630Z,24.29
2022-08-27T17:05:54.230Z,24.10
2022-08-27T17:08:26.278Z,24.17
2022-08-27T17:10:56.987Z,24.19
2022-08-27T17:13:30.212Z,24.13
2022-08-27T17:16:01.069Z,24.11
2022-08-27T17:18:30.466Z,24.05
2022-08-27T17:21:00.735Z,24.03
2022-08-27T17:23:35.659Z,23.97
2022-08-27T17:26:06.850Z,23.96
2022-08-27T17:28:39.332Z,24.03
2022-08-27T17:31:09.403Z,23.93
2022-08-27T17:33:41.134Z,23.94
2022-08-27T17:36:11.415Z,23.84
2022-08-27T17:38:40.430Z,23.72
2022-08-27T17:41:14.089Z,23.71
2022-08-27T17:43:44.235Z,23.48
2022-08-27T17:46:13.718Z,23.32
2022-08-27T17:48:42.765Z,23.26
2022-08-27T17:51:12.757Z,23.28
2022-08-27T17:53:48.179Z,23.29
2022-08-27T17:56:18.712Z,23.20
2022-08-27T17:58:49.809Z,23.08
2022-08-27T18:01:24.801Z,23.14
2022-08-27T18:03:57.846Z,22.99
2022-08-27T18:06:28.586Z,22.93
2022-08-27T18:08:57.192Z,22.92
2022-08-27T18:11:26.337Z,22.88
2022-08-27T18:14:04.734Z,22.94
2022-08-27T18:16:34.591Z,22.88
2022-08-27T18:19:06.902Z,22.89
2022-08-27T18:21:35.888Z,22.85
2022-08-27T18:24:15.089Z,22.75
2022-08-27T18:26:44.820Z,22.83
2022-08-27T18:29:16.254Z,22.66
2022-08-27T18:31:44.930Z,22.68
2022-08-27T18:34:17.550Z,22.72
2022-08-27T18:36:48.689Z,22.76
2022-08-27T18:39:17.323Z,22.68
2022-08-27T18:41:45.878Z,22.64
2022-08-27T18:44:17.465Z,22.61
2022-08-27T18:46:46.740Z,22.62
2022-08-27T18:49:15.605Z,22.50
2022-08-27T18:51:49.256Z,22.52
2022-08-27T18:54:21.070Z,22.56
2022-08-27T18:56:49.569Z,22.55
2022-08-27T18:59:19.326Z,22.74
2022-08-27T19:01:48.240Z,22.54
2022-08-27T19:04:18.947Z,22.59
2022-08-27T19:06:47.637Z,22.47
2022-08-27T19:09:16.308Z,22.43
2022-08-27T19:11:44.855Z,22.41
2022-08-27T19:14:13.460Z,22.19
2022-08-27T19:16:47.377Z,22.25
2022-08-27T19:19:17.982Z,22.14
2022-08-27T19:21:51.205Z,22.03
2022-08-27T19:24:20.583Z,21.97
2022-08-27T19:26:49.593Z,21.87
2022-08-27T19:29:18.135Z,21.85
2022-08-27T19:31:49.737Z,21.82
2022-08-27T19:34:18.282Z,21.74
2022-08-27T19:36:46.732Z,21.67
2022-08-27T19:39:15.198Z,21.78
2022-08-27T19:41:43.607Z,21.82
2022-08-27T19:44:12.202Z,21.73
2022-08-27T19:46:40.910Z,21.73
2022-08-27T19:49:10.807Z,21.71
2022-08-27T19:51:39.344Z,21.65
2022-08-27T19:54:07.792Z,21.59
2022-08-27T19:56:37.237Z,21.53
2022-08-27T19:59:17.543Z,21.59
2022-08-27T20:01:50.022Z,21.37
2022-08-27T20:04:19.848Z,21.28
2022-08-27T20:06:48.740Z,21.29
2022-08-27T20:09:18.489Z,21.29
2022-08-27T20:11:47.618Z,21.24
2022-08-27T20:14:16.657Z,21.12
2022-08-27T20:16:46.802Z,21.14
2022-08-27T20:19:17.151Z,21.24
2022-08-27T20:21:47.063Z,21.16
2022-08-27T20:24:15.500Z,21.12
2022-08-27T20:26:43.885Z,21.12
2022-08-27T20:29:15.106Z,21.17
2022-08-27T20:32:01.100Z,21.01
2022-08-27T20:34:29.883Z,20.99
2022-08-27T20:37:00.360Z,20.91
2022-08-27T20:39:28.793Z,20.96
2022-08-27T20:41:57.243Z,21.00
2022-08-27T20:44:25.700Z,20.98
2022-08-27T20:47:00.527Z,20.91
2022-08-27T20:49:29.183Z,20.95
2022-08-27T20:52:03.194Z,20.96
2022-08-27T20:54:33.807Z,20.96
2022-08-27T20:57:03.402Z,20.87
2022-08-27T20:59:50.048Z,20.90
2022-08-27T21:02:24.485Z,20.97
2022-08-27T21:04:53.815Z,20.91
2022-08-27T21:07:24.715Z,20.99
2022-08-27T21:09:56.823Z,20.84
2022-08-27T21:12:26.724Z,20.74
2022-08-27T21:14:56.479Z,20.74
2022-08-27T21:17:27.045Z,20.73
2022-08-27T21:19:56.651Z,20.71
2022-08-27T21:22:27.082Z,20.73
2022-08-27T21:24:56.278Z,20.75
2022-08-27T21:27:25.249Z,20.67
2022-08-27T21:29:54.094Z,20.67
2022-08-27T21:32:22.680Z,20.52
2022-08-27T21:34:51.169Z,20.52
2022-08-27T21:37:20.295Z,20.47
2022-08-27T21:39:50.136Z,20.45
2022-08-27T21:42:19.451Z,20.41
2022-08-27T21:44:47.942Z,20.42
2022-08-27T21:47:16.521Z,20.35
2022-08-27T21:49:45.216Z,20.38
2022-08-27T21:52:13.643Z,20.53
2022-08-27T21:54:43.597Z,20.40
2022-08-27T21:57:15.696Z,20.40
2022-08-27T21:59:47.291Z,20.40
2022-08-27T22:02:38.734Z,20.32
2022-08-27T22:05:06.757Z,20.36
2022-08-27T22:07:35.305Z,20.33
2022-08-27T22:10:03.711Z,20.11
2022-08-27T22:12:33.612Z,20.01
2022-08-27T22:15:02.423Z,20.10
2022-08-27T22:17:31.001Z,20.02
2022-08-27T22:19:59.457Z,20.01
2022-08-27T22:22:30.828Z,19.96
2022-08-27T22:24:59.521Z,19.88
2022-08-27T22:27:27.966Z,19.80
2022-08-27T22:29:57.769Z,19.78
2022-08-27T22:32:26.324Z,19.90
2022-08-27T22:34:54.785Z,19.81
2022-08-27T22:37:23.484Z,19.92
2022-08-27T22:39:52.368Z,19.77
2022-08-27T22:42:20.790Z,19.72
2022-08-27T22:44:49.187Z,19.80
2022-08-27T22:47:19.092Z,19.81
2022-08-27T22:49:47.607Z,19.85
2022-08-27T22:52:21.289Z,19.68
2022-08-27T22:54:54.948Z,19.72
2022-08-27T22:57:23.658Z,19.49
2022-08-27T22:59:52.165Z,19.56
2022-08-27T23:02:21.945Z,19.53
2022-08-27T23:04:57.595Z,19.63
2022-08-27T23:07:26.458Z,19.49
2022-08-27T23:09:54.865Z,19.43
2022-08-27T23:12:23.737Z,19.36
2022-08-27T23:14:52.201Z,19.42
2022-08-27T23:17:23.892Z,19.23
2022-08-27T23:19:53.511Z,19.25
2022-08-27T23:22:22.349Z,19.26
2022-08-27T23:25:08.238Z,19.16
2022-08-27T23:27:36.761Z,19.10
2022-08-27T23:30:08.045Z,19.13
2022-08-27T23:32:38.027Z,19.04
2022-08-27T23:35:08.568Z,19.09
2022-08-27T23:37:37.150Z,19.08
2022-08-27T23:40:09.030Z,19.05
2022-08-27T23:42:37.908Z,19.13
2022-08-27T23:45:08.395Z,19.09
2022-08-27T23:47:38.371Z,19.15
2022-08-27T23:50:09.020Z,19.10
2022-08-27T23:52:38.217Z,19.03
2022-08-27T23:55:08.102Z,19.01
2022-08-27T23:57:36.558Z,19.00
